sensor_id;sensor_type;location;lat;lon;timestamp;P1;durP1;ratioP1;P2;durP2;ratioP2
30723;SDS011;17473;52.286;20.930;2022-11-15T00:01:09;26.40;;;15.87;;
30723;SDS011;17473;52.286;20.930;2022-11-15T00:03:43;27.80;;;14.20;;
30723;SDS011;17473;52.286;20.930;2022-11-15T00:06:10;28.00;;;16.37;;
30723;SDS011;17473;52.286;20.930;2022-11-15T00:08:37;25.77;;;15.20;;
30723;SDS011;17473;52.286;20.930;2022-11-15T00:11:04;26.10;;;16.07;;
30723;SDS011;17473;52.286;20.930;2022-11-15T00:13:31;27.03;;;15.50;;
30723;SDS011;17473;52.286;20.930;2022-11-15T00:16:00;26.43;;;15.60;;
30723;SDS011;17473;52.286;20.930;2022-11-15T00:18:28;25.50;;;15.90;;
30723;SDS011;17473;52.286;20.930;2022-11-15T00:20:56;26.93;;;15.87;;
30723;SDS011;17473;52.286;20.930;2022-11-15T00:23:35;26.33;;;16.17;;
30723;SDS011;17473;52.286;20.930;2022-11-15T00:26:02;30.50;;;16.83;;
30723;SDS011;17473;52.286;20.930;2022-11-15T00:28:29;29.40;;;17.80;;
30723;SDS011;17473;52.286;20.930;2022-11-15T00:31:03;28.80;;;16.97;;
30723;SDS011;17473;52.286;20.930;2022-11-15T00:33:33;27.43;;;16.07;;
30723;SDS011;17473;52.286;20.930;2022-11-15T00:36:01;29.07;;;17.73;;
30723;SDS011;17473;52.286;20.930;2022-11-15T00:38:31;27.37;;;16.73;;
30723;SDS011;17473;52.286;20.930;2022-11-15T00:41:00;28.67;;;17.03;;
30723;SDS011;17473;52.286;20.930;2022-11-15T00:43:34;28.57;;;16.33;;
30723;SDS011;17473;52.286;20.930;2022-11-15T00:46:01;31.03;;;18.10;;
30723;SDS011;17473;52.286;20.930;2022-11-15T00:48:29;30.77;;;17.97;;
30723;SDS011;17473;52.286;20.930;2022-11-15T00:50:56;32.97;;;19.40;;
30723;SDS011;17473;52.286;20.930;2022-11-15T00:53:24;32.83;;;17.60;;
30723;SDS011;17473;52.286;20.930;2022-11-15T00:55:51;30.93;;;18.40;;
30723;SDS011;17473;52.286;20.930;2022-11-15T00:58:18;31.33;;;19.50;;
30723;SDS011;17473;52.286;20.930;2022-11-15T01:00:45;30.57;;;17.93;;
30723;SDS011;17473;52.286;20.930;2022-11-15T01:03:13;38.80;;;19.90;;
30723;SDS011;17473;52.286;20.930;2022-11-15T01:05:40;33.70;;;19.40;;
30723;SDS011;17473;52.286;20.930;2022-11-15T01:08:11;34.27;;;19.90;;
30723;SDS011;17473;52.286;20.930;2022-11-15T01:10:40;36.27;;;19.53;;
30723;SDS011;17473;52.286;20.930;2022-11-15T01:13:07;34.77;;;19.80;;
30723;SDS011;17473;52.286;20.930;2022-11-15T01:15:38;36.30;;;19.97;;
30723;SDS011;17473;52.286;20.930;2022-11-15T01:18:06;34.87;;;20.13;;
30723;SDS011;17473;52.286;20.930;2022-11-15T01:20:34;36.43;;;21.67;;
30723;SDS011;17473;52.286;20.930;2022-11-15T01:23:05;40.80;;;23.13;;
30723;SDS011;17473;52.286;20.930;2022-11-15T01:25:32;35.73;;;21.57;;
30723;SDS011;17473;52.286;20.930;2022-11-15T01:27:59;40.30;;;22.97;;
30723;SDS011;17473;52.286;20.930;2022-11-15T01:30:26;36.60;;;22.47;;
30723;SDS011;17473;52.286;20.930;2022-11-15T01:32:53;42.03;;;23.97;;
30723;SDS011;17473;52.286;20.930;2022-11-15T01:35:20;42.67;;;23.90;;
30723;SDS011;17473;52.286;20.930;2022-11-15T01:37:47;41.77;;;24.20;;
30723;SDS011;17473;52.286;20.930;2022-11-15T01:40:14;46.93;;;25.07;;
30723;SDS011;17473;52.286;20.930;2022-11-15T01:42:41;41.03;;;23.47;;
30723;SDS011;17473;52.286;20.930;2022-11-15T01:45:15;41.63;;;22.90;;
30723;SDS011;17473;52.286;20.930;2022-11-15T01:47:43;46.00;;;24.20;;
30723;SDS011;17473;52.286;20.930;2022-11-15T01:50:19;48.90;;;24.70;;
30723;SDS011;17473;52.286;20.930;2022-11-15T01:52:51;45.87;;;26.03;;
30723;SDS011;17473;52.286;20.930;2022-11-15T01:55:20;44.70;;;25.73;;
30723;SDS011;17473;52.286;20.930;2022-11-15T01:57:53;43.73;;;24.80;;
30723;SDS011;17473;52.286;20.930;2022-11-15T02:00:26;44.83;;;24.30;;
30723;SDS011;17473;52.286;20.930;2022-11-15T02:02:54;44.47;;;25.23;;
30723;SDS011;17473;52.286;20.930;2022-11-15T02:05:22;46.37;;;25.33;;
30723;SDS011;17473;52.286;20.930;2022-11-15T02:07:49;43.87;;;23.63;;
30723;SDS011;17473;52.286;20.930;2022-11-15T02:10:18;39.87;;;23.07;;
30723;SDS011;17473;52.286;20.930;2022-11-15T02:12:48;40.47;;;23.23;;
30723;SDS011;17473;52.286;20.930;2022-11-15T02:15:17;44.27;;;22.90;;
30723;SDS011;17473;52.286;20.930;2022-11-15T02:20:58;37.30;;;23.17;;
30723;SDS011;17473;52.286;20.930;2022-11-15T02:30:17;40.10;;;22.53;;
30723;SDS011;17473;52.286;20.930;2022-11-15T02:39:10;44.30;;;23.83;;
30723;SDS011;17473;52.286;20.930;2022-11-15T02:42:14;41.07;;;24.80;;
30723;SDS011;17473;52.286;20.930;2022-11-15T02:45:12;42.27;;;24.47;;
30723;SDS011;17473;52.286;20.930;2022-11-15T02:47:47;43.87;;;23.57;;
30723;SDS011;17473;52.286;20.930;2022-11-15T02:50:19;43.80;;;24.33;;
30723;SDS011;17473;52.286;20.930;2022-11-15T02:52:50;41.70;;;24.43;;
30723;SDS011;17473;52.286;20.930;2022-11-15T02:55:27;43.13;;;24.43;;
30723;SDS011;17473;52.286;20.930;2022-11-15T03:10:14;46.50;;;25.73;;
30723;SDS011;17473;52.286;20.930;2022-11-15T03:13:16;51.03;;;26.73;;
30723;SDS011;17473;52.286;20.930;2022-11-15T03:16:03;53.10;;;26.30;;
30723;SDS011;17473;52.286;20.930;2022-11-15T03:18:41;53.40;;;28.67;;
30723;SDS011;17473;52.286;20.930;2022-11-15T03:21:14;49.70;;;27.33;;
30723;SDS011;17473;52.286;20.930;2022-11-15T03:23:45;52.70;;;28.23;;
30723;SDS011;17473;52.286;20.930;2022-11-15T03:26:15;49.83;;;26.33;;
30723;SDS011;17473;52.286;20.930;2022-11-15T03:28:52;50.60;;;27.43;;
30723;SDS011;17473;52.286;20.930;2022-11-15T03:31:43;54.07;;;29.07;;
30723;SDS011;17473;52.286;20.930;2022-11-15T03:36:53;50.60;;;26.20;;
30723;SDS011;17473;52.286;20.930;2022-11-15T03:39:21;52.63;;;26.97;;
30723;SDS011;17473;52.286;20.930;2022-11-15T03:44:52;52.10;;;26.47;;
30723;SDS011;17473;52.286;20.930;2022-11-15T03:47:34;51.73;;;28.13;;
30723;SDS011;17473;52.286;20.930;2022-11-15T03:50:18;49.67;;;26.60;;
30723;SDS011;17473;52.286;20.930;2022-11-15T03:52:48;47.63;;;28.20;;
30723;SDS011;17473;52.286;20.930;2022-11-15T03:55:19;54.67;;;27.97;;
30723;SDS011;17473;52.286;20.930;2022-11-15T03:57:49;53.37;;;27.40;;
30723;SDS011;17473;52.286;20.930;2022-11-15T04:00:24;50.83;;;26.20;;
30723;SDS011;17473;52.286;20.930;2022-11-15T04:02:51;55.23;;;29.07;;
30723;SDS011;17473;52.286;20.930;2022-11-15T04:05:18;55.63;;;27.73;;
30723;SDS011;17473;52.286;20.930;2022-11-15T04:07:45;49.73;;;26.90;;
30723;SDS011;17473;52.286;20.930;2022-11-15T04:10:13;53.20;;;28.57;;
30723;SDS011;17473;52.286;20.930;2022-11-15T04:12:44;52.00;;;27.77;;
30723;SDS011;17473;52.286;20.930;2022-11-15T04:15:19;51.87;;;27.67;;
30723;SDS011;17473;52.286;20.930;2022-11-15T04:17:50;56.20;;;27.77;;
30723;SDS011;17473;52.286;20.930;2022-11-15T04:20:20;56.17;;;29.10;;
30723;SDS011;17473;52.286;20.930;2022-11-15T04:23:11;62.20;;;29.20;;
30723;SDS011;17473;52.286;20.930;2022-11-15T04:26:08;60.10;;;29.87;;
30723;SDS011;17473;52.286;20.930;2022-11-15T04:28:38;56.20;;;29.57;;
30723;SDS011;17473;52.286;20.930;2022-11-15T04:31:26;54.43;;;29.23;;
30723;SDS011;17473;52.286;20.930;2022-11-15T04:33:54;51.17;;;28.53;;
30723;SDS011;17473;52.286;20.930;2022-11-15T04:36:22;60.97;;;28.50;;
30723;SDS011;17473;52.286;20.930;2022-11-15T04:39:08;52.53;;;26.40;;
30723;SDS011;17473;52.286;20.930;2022-11-15T04:41:35;53.97;;;28.13;;
30723;SDS011;17473;52.286;20.930;2022-11-15T04:44:02;57.00;;;28.53;;
30723;SDS011;17473;52.286;20.930;2022-11-15T04:46:30;52.07;;;28.00;;
30723;SDS011;17473;52.286;20.930;2022-11-15T04:48:57;55.13;;;27.87;;
30723;SDS011;17473;52.286;20.930;2022-11-15T04:51:25;52.27;;;25.60;;
30723;SDS011;17473;52.286;20.930;2022-11-15T04:53:52;58.57;;;28.93;;
30723;SDS011;17473;52.286;20.930;2022-11-15T04:56:20;50.50;;;26.27;;
30723;SDS011;17473;52.286;20.930;2022-11-15T04:58:49;55.83;;;27.67;;
30723;SDS011;17473;52.286;20.930;2022-11-15T05:01:17;51.13;;;26.27;;
30723;SDS011;17473;52.286;20.930;2022-11-15T05:03:44;52.27;;;26.00;;
30723;SDS011;17473;52.286;20.930;2022-11-15T05:06:30;54.67;;;26.13;;
30723;SDS011;17473;52.286;20.930;2022-11-15T05:08:58;50.70;;;25.97;;
30723;SDS011;17473;52.286;20.930;2022-11-15T05:11:25;55.93;;;27.63;;
30723;SDS011;17473;52.286;20.930;2022-11-15T05:13:53;56.53;;;27.00;;
30723;SDS011;17473;52.286;20.930;2022-11-15T05:16:21;59.97;;;28.40;;
30723;SDS011;17473;52.286;20.930;2022-11-15T05:18:52;53.83;;;26.43;;
30723;SDS011;17473;52.286;20.930;2022-11-15T05:21:20;50.07;;;24.57;;
30723;SDS011;17473;52.286;20.930;2022-11-15T05:23:48;46.70;;;25.97;;
30723;SDS011;17473;52.286;20.930;2022-11-15T05:26:15;57.60;;;25.20;;
30723;SDS011;17473;52.286;20.930;2022-11-15T05:28:44;54.23;;;26.20;;
30723;SDS011;17473;52.286;20.930;2022-11-15T05:31:12;48.80;;;24.77;;
30723;SDS011;17473;52.286;20.930;2022-11-15T05:33:42;45.30;;;24.00;;
30723;SDS011;17473;52.286;20.930;2022-11-15T05:39:07;51.10;;;23.73;;
30723;SDS011;17473;52.286;20.930;2022-11-15T05:41:42;53.23;;;26.93;;
30723;SDS011;17473;52.286;20.930;2022-11-15T05:44:14;50.07;;;24.23;;
30723;SDS011;17473;52.286;20.930;2022-11-15T05:46:47;53.07;;;25.60;;
30723;SDS011;17473;52.286;20.930;2022-11-15T05:49:16;53.27;;;25.80;;
30723;SDS011;17473;52.286;20.930;2022-11-15T05:51:48;51.53;;;26.17;;
30723;SDS011;17473;52.286;20.930;2022-11-15T05:54:16;46.03;;;23.37;;
30723;SDS011;17473;52.286;20.930;2022-11-15T05:56:45;54.03;;;25.93;;
30723;SDS011;17473;52.286;20.930;2022-11-15T05:59:13;51.00;;;24.77;;
30723;SDS011;17473;52.286;20.930;2022-11-15T06:01:40;51.57;;;25.53;;
30723;SDS011;17473;52.286;20.930;2022-11-15T06:04:07;52.93;;;25.20;;
30723;SDS011;17473;52.286;20.930;2022-11-15T06:06:34;50.63;;;25.03;;
30723;SDS011;17473;52.286;20.930;2022-11-15T06:09:01;46.97;;;24.13;;
30723;SDS011;17473;52.286;20.930;2022-11-15T06:11:29;46.93;;;23.33;;
30723;SDS011;17473;52.286;20.930;2022-11-15T06:13:56;48.00;;;24.27;;
30723;SDS011;17473;52.286;20.930;2022-11-15T06:16:23;49.70;;;24.40;;
30723;SDS011;17473;52.286;20.930;2022-11-15T06:18:50;45.67;;;22.30;;
30723;SDS011;17473;52.286;20.930;2022-11-15T06:21:17;45.30;;;22.00;;
30723;SDS011;17473;52.286;20.930;2022-11-15T06:23:44;52.73;;;23.40;;
30723;SDS011;17473;52.286;20.930;2022-11-15T06:26:11;45.40;;;22.63;;
30723;SDS011;17473;52.286;20.930;2022-11-15T06:28:38;46.30;;;22.73;;
30723;SDS011;17473;52.286;20.930;2022-11-15T06:31:06;46.60;;;22.80;;
30723;SDS011;17473;52.286;20.930;2022-11-15T06:33:37;44.27;;;22.33;;
30723;SDS011;17473;52.286;20.930;2022-11-15T06:36:06;48.17;;;24.63;;
30723;SDS011;17473;52.286;20.930;2022-11-15T06:38:43;45.83;;;23.60;;
30723;SDS011;17473;52.286;20.930;2022-11-15T06:41:11;48.63;;;24.47;;
30723;SDS011;17473;52.286;20.930;2022-11-15T06:43:40;45.40;;;21.93;;
30723;SDS011;17473;52.286;20.930;2022-11-15T06:46:07;50.33;;;22.73;;
30723;SDS011;17473;52.286;20.930;2022-11-15T06:48:35;46.33;;;24.03;;
30723;SDS011;17473;52.286;20.930;2022-11-15T06:51:03;51.20;;;23.53;;
30723;SDS011;17473;52.286;20.930;2022-11-15T06:53:31;50.33;;;23.63;;
30723;SDS011;17473;52.286;20.930;2022-11-15T06:56:03;50.63;;;24.47;;
30723;SDS011;17473;52.286;20.930;2022-11-15T06:58:33;51.83;;;24.00;;
30723;SDS011;17473;52.286;20.930;2022-11-15T07:01:03;54.83;;;25.10;;
30723;SDS011;17473;52.286;20.930;2022-11-15T07:03:36;54.47;;;23.97;;
30723;SDS011;17473;52.286;20.930;2022-11-15T07:06:06;50.07;;;23.53;;
30723;SDS011;17473;52.286;20.930;2022-11-15T07:08:34;47.90;;;22.80;;
30723;SDS011;17473;52.286;20.930;2022-11-15T07:11:03;44.27;;;23.03;;
30723;SDS011;17473;52.286;20.930;2022-11-15T07:13:33;45.27;;;22.13;;
30723;SDS011;17473;52.286;20.930;2022-11-15T07:16:06;43.80;;;20.97;;
30723;SDS011;17473;52.286;20.930;2022-11-15T07:18:37;51.00;;;25.83;;
30723;SDS011;17473;52.286;20.930;2022-11-15T07:21:06;50.23;;;23.73;;
30723;SDS011;17473;52.286;20.930;2022-11-15T07:23:37;40.43;;;20.23;;
30723;SDS011;17473;52.286;20.930;2022-11-15T07:26:05;37.93;;;19.43;;
30723;SDS011;17473;52.286;20.930;2022-11-15T07:28:33;39.90;;;19.97;;
30723;SDS011;17473;52.286;20.930;2022-11-15T07:31:02;39.33;;;19.20;;
30723;SDS011;17473;52.286;20.930;2022-11-15T07:33:30;43.07;;;21.30;;
30723;SDS011;17473;52.286;20.930;2022-11-15T07:35:59;38.63;;;19.37;;
30723;SDS011;17473;52.286;20.930;2022-11-15T07:38:31;37.50;;;19.87;;
30723;SDS011;17473;52.286;20.930;2022-11-15T07:41:07;41.10;;;21.53;;
30723;SDS011;17473;52.286;20.930;2022-11-15T07:43:34;40.63;;;21.30;;
30723;SDS011;17473;52.286;20.930;2022-11-15T07:46:05;41.20;;;20.17;;
30723;SDS011;17473;52.286;20.930;2022-11-15T07:48:35;45.47;;;20.50;;
30723;SDS011;17473;52.286;20.930;2022-11-15T07:51:11;42.57;;;21.53;;
30723;SDS011;17473;52.286;20.930;2022-11-15T07:53:41;39.60;;;21.00;;
30723;SDS011;17473;52.286;20.930;2022-11-15T07:56:10;40.97;;;20.27;;
30723;SDS011;17473;52.286;20.930;2022-11-15T07:58:38;44.43;;;20.43;;
30723;SDS011;17473;52.286;20.930;2022-11-15T08:01:05;42.53;;;21.13;;
30723;SDS011;17473;52.286;20.930;2022-11-15T08:03:35;36.67;;;21.13;;
30723;SDS011;17473;52.286;20.930;2022-11-15T08:06:03;44.30;;;21.37;;
30723;SDS011;17473;52.286;20.930;2022-11-15T08:08:30;37.70;;;20.20;;
30723;SDS011;17473;52.286;20.930;2022-11-15T08:10:58;38.70;;;21.13;;
30723;SDS011;17473;52.286;20.930;2022-11-15T08:13:25;38.80;;;21.13;;
30723;SDS011;17473;52.286;20.930;2022-11-15T08:15:56;40.63;;;20.60;;
30723;SDS011;17473;52.286;20.930;2022-11-15T08:18:28;43.13;;;21.57;;
30723;SDS011;17473;52.286;20.930;2022-11-15T08:20:58;39.10;;;20.87;;
30723;SDS011;17473;52.286;20.930;2022-11-15T08:23:26;38.00;;;20.07;;
30723;SDS011;17473;52.286;20.930;2022-11-15T08:26:01;44.63;;;21.27;;
30723;SDS011;17473;52.286;20.930;2022-11-15T08:28:29;40.33;;;20.80;;
30723;SDS011;17473;52.286;20.930;2022-11-15T08:30:57;47.40;;;21.50;;
30723;SDS011;17473;52.286;20.930;2022-11-15T08:33:24;36.63;;;19.10;;
30723;SDS011;17473;52.286;20.930;2022-11-15T08:35:51;51.83;;;20.00;;
30723;SDS011;17473;52.286;20.930;2022-11-15T08:38:18;36.03;;;18.57;;
30723;SDS011;17473;52.286;20.930;2022-11-15T08:40:45;41.07;;;19.80;;
30723;SDS011;17473;52.286;20.930;2022-11-15T08:43:12;40.37;;;20.53;;
30723;SDS011;17473;52.286;20.930;2022-11-15T08:45:39;37.77;;;18.73;;
30723;SDS011;17473;52.286;20.930;2022-11-15T08:48:06;35.67;;;19.23;;
30723;SDS011;17473;52.286;20.930;2022-11-15T08:50:33;40.70;;;20.37;;
30723;SDS011;17473;52.286;20.930;2022-11-15T08:53:04;35.73;;;18.60;;
30723;SDS011;17473;52.286;20.930;2022-11-15T08:55:37;41.57;;;19.67;;
30723;SDS011;17473;52.286;20.930;2022-11-15T08:58:05;40.67;;;21.53;;
30723;SDS011;17473;52.286;20.930;2022-11-15T09:00:33;42.07;;;21.03;;
30723;SDS011;17473;52.286;20.930;2022-11-15T09:03:03;39.10;;;19.90;;
30723;SDS011;17473;52.286;20.930;2022-11-15T09:05:31;44.40;;;21.03;;
30723;SDS011;17473;52.286;20.930;2022-11-15T09:08:03;39.20;;;21.03;;
30723;SDS011;17473;52.286;20.930;2022-11-15T09:10:51;37.07;;;20.97;;
30723;SDS011;17473;52.286;20.930;2022-11-15T09:13:18;37.90;;;20.37;;
30723;SDS011;17473;52.286;20.930;2022-11-15T09:15:45;39.27;;;20.50;;
30723;SDS011;17473;52.286;20.930;2022-11-15T09:18:12;39.47;;;19.73;;
30723;SDS011;17473;52.286;20.930;2022-11-15T09:20:39;39.40;;;20.87;;
30723;SDS011;17473;52.286;20.930;2022-11-15T09:23:06;42.43;;;20.93;;
30723;SDS011;17473;52.286;20.930;2022-11-15T09:25:33;36.30;;;19.83;;
30723;SDS011;17473;52.286;20.930;2022-11-15T09:28:00;39.80;;;21.03;;
30723;SDS011;17473;52.286;20.930;2022-11-15T09:30:31;41.00;;;20.50;;
30723;SDS011;17473;52.286;20.930;2022-11-15T09:32:58;32.63;;;18.70;;
30723;SDS011;17473;52.286;20.930;2022-11-15T09:35:32;40.27;;;21.03;;
30723;SDS011;17473;52.286;20.930;2022-11-15T09:37:59;39.97;;;20.73;;
30723;SDS011;17473;52.286;20.930;2022-11-15T09:40:26;43.07;;;21.57;;
30723;SDS011;17473;52.286;20.930;2022-11-15T09:48:59;40.33;;;21.73;;
30723;SDS011;17473;52.286;20.930;2022-11-15T09:51:37;45.57;;;20.73;;
30723;SDS011;17473;52.286;20.930;2022-11-15T10:03:17;39.03;;;21.57;;
30723;SDS011;17473;52.286;20.930;2022-11-15T10:05:55;49.10;;;22.63;;
30723;SDS011;17473;52.286;20.930;2022-11-15T10:11:49;44.97;;;22.30;;
30723;SDS011;17473;52.286;20.930;2022-11-15T10:14:19;44.93;;;22.77;;
30723;SDS011;17473;52.286;20.930;2022-11-15T10:17:02;43.77;;;22.77;;
30723;SDS011;17473;52.286;20.930;2022-11-15T10:22:46;43.70;;;22.43;;
30723;SDS011;17473;52.286;20.930;2022-11-15T10:25:19;43.20;;;22.50;;
30723;SDS011;17473;52.286;20.930;2022-11-15T10:30:57;42.00;;;22.53;;
30723;SDS011;17473;52.286;20.930;2022-11-15T10:33:34;42.17;;;22.57;;
30723;SDS011;17473;52.286;20.930;2022-11-15T10:41:21;45.97;;;23.90;;
30723;SDS011;17473;52.286;20.930;2022-11-15T10:49:28;42.30;;;23.07;;
30723;SDS011;17473;52.286;20.930;2022-11-15T10:51:57;42.33;;;23.10;;
30723;SDS011;17473;52.286;20.930;2022-11-15T10:54:38;48.27;;;24.23;;
30723;SDS011;17473;52.286;20.930;2022-11-15T10:57:33;51.33;;;23.87;;
30723;SDS011;17473;52.286;20.930;2022-11-15T11:02:47;45.97;;;24.17;;
30723;SDS011;17473;52.286;20.930;2022-11-15T11:10:37;46.70;;;24.80;;
30723;SDS011;17473;52.286;20.930;2022-11-15T11:13:25;46.20;;;24.20;;
30723;SDS011;17473;52.286;20.930;2022-11-15T11:27:46;41.57;;;23.30;;
30723;SDS011;17473;52.286;20.930;2022-11-15T11:30:23;48.00;;;25.40;;
30723;SDS011;17473;52.286;20.930;2022-11-15T11:33:24;43.73;;;23.13;;
30723;SDS011;17473;52.286;20.930;2022-11-15T11:41:55;52.77;;;25.20;;
30723;SDS011;17473;52.286;20.930;2022-11-15T11:47:42;50.00;;;26.43;;
30723;SDS011;17473;52.286;20.930;2022-11-15T11:50:18;53.47;;;25.43;;
30723;SDS011;17473;52.286;20.930;2022-11-15T11:58:25;52.40;;;26.13;;
30723;SDS011;17473;52.286;20.930;2022-11-15T12:03:59;58.40;;;27.27;;
30723;SDS011;17473;52.286;20.930;2022-11-15T12:12:07;54.50;;;26.17;;
30723;SDS011;17473;52.286;20.930;2022-11-15T12:14:57;47.20;;;25.60;;
30723;SDS011;17473;52.286;20.930;2022-11-15T12:17:30;53.10;;;25.80;;
30723;SDS011;17473;52.286;20.930;2022-11-15T12:20:06;52.93;;;26.90;;
30723;SDS011;17473;52.286;20.930;2022-11-15T12:22:49;51.47;;;27.23;;
30723;SDS011;17473;52.286;20.930;2022-11-15T12:28:14;50.07;;;26.93;;
30723;SDS011;17473;52.286;20.930;2022-11-15T12:30:56;53.23;;;27.57;;
30723;SDS011;17473;52.286;20.930;2022-11-15T12:33:55;59.33;;;25.57;;
30723;SDS011;17473;52.286;20.930;2022-11-15T12:36:30;53.27;;;29.07;;
30723;SDS011;17473;52.286;20.930;2022-11-15T12:39:11;48.90;;;25.93;;
30723;SDS011;17473;52.286;20.930;2022-11-15T12:41:40;50.00;;;27.50;;
30723;SDS011;17473;52.286;20.930;2022-11-15T12:46:59;51.60;;;27.37;;
30723;SDS011;17473;52.286;20.930;2022-11-15T13:02:25;52.70;;;27.93;;
30723;SDS011;17473;52.286;20.930;2022-11-15T13:08:02;48.97;;;26.10;;
30723;SDS011;17473;52.286;20.930;2022-11-15T13:10:31;51.77;;;28.27;;
30723;SDS011;17473;52.286;20.930;2022-11-15T13:13:03;56.93;;;28.03;;
30723;SDS011;17473;52.286;20.930;2022-11-15T13:15:36;50.97;;;26.53;;
30723;SDS011;17473;52.286;20.930;2022-11-15T13:21:22;50.33;;;28.33;;
30723;SDS011;17473;52.286;20.930;2022-11-15T13:24:10;50.60;;;26.77;;
30723;SDS011;17473;52.286;20.930;2022-11-15T13:26:42;48.50;;;27.80;;
30723;SDS011;17473;52.286;20.930;2022-11-15T13:29:14;56.10;;;28.67;;
30723;SDS011;17473;52.286;20.930;2022-11-15T13:31:45;59.43;;;28.27;;
30723;SDS011;17473;52.286;20.930;2022-11-15T13:34:26;60.43;;;28.37;;
30723;SDS011;17473;52.286;20.930;2022-11-15T13:39:47;55.63;;;28.03;;
30723;SDS011;17473;52.286;20.930;2022-11-15T13:42:16;47.27;;;26.40;;
30723;SDS011;17473;52.286;20.930;2022-11-15T13:44:58;50.30;;;26.33;;
30723;SDS011;17473;52.286;20.930;2022-11-15T13:47:30;52.90;;;26.90;;
30723;SDS011;17473;52.286;20.930;2022-11-15T13:49:58;47.20;;;24.50;;
30723;SDS011;17473;52.286;20.930;2022-11-15T13:52:28;48.23;;;25.93;;
30723;SDS011;17473;52.286;20.930;2022-11-15T13:57:56;50.87;;;25.00;;
30723;SDS011;17473;52.286;20.930;2022-11-15T14:00:34;47.60;;;26.17;;
30723;SDS011;17473;52.286;20.930;2022-11-15T14:03:12;47.17;;;26.57;;
30723;SDS011;17473;52.286;20.930;2022-11-15T14:06:19;49.23;;;27.83;;
30723;SDS011;17473;52.286;20.930;2022-11-15T14:09:04;51.83;;;28.87;;
30723;SDS011;17473;52.286;20.930;2022-11-15T14:11:37;47.43;;;26.83;;
30723;SDS011;17473;52.286;20.930;2022-11-15T14:14:20;51.60;;;28.47;;
30723;SDS011;17473;52.286;20.930;2022-11-15T14:16:54;59.63;;;28.90;;
30723;SDS011;17473;52.286;20.930;2022-11-15T14:24:43;55.83;;;28.43;;
30723;SDS011;17473;52.286;20.930;2022-11-15T14:27:16;56.43;;;27.20;;
30723;SDS011;17473;52.286;20.930;2022-11-15T14:29:51;45.30;;;25.57;;
30723;SDS011;17473;52.286;20.930;2022-11-15T14:32:21;46.83;;;25.23;;
30723;SDS011;17473;52.286;20.930;2022-11-15T14:34:57;44.03;;;25.13;;
30723;SDS011;17473;52.286;20.930;2022-11-15T14:37:27;47.27;;;24.70;;
30723;SDS011;17473;52.286;20.930;2022-11-15T14:40:01;45.63;;;24.03;;
30723;SDS011;17473;52.286;20.930;2022-11-15T14:42:31;49.70;;;24.47;;
30723;SDS011;17473;52.286;20.930;2022-11-15T14:44:58;50.27;;;25.83;;
30723;SDS011;17473;52.286;20.930;2022-11-15T14:47:25;46.90;;;24.90;;
30723;SDS011;17473;52.286;20.930;2022-11-15T14:49:52;48.63;;;25.03;;
30723;SDS011;17473;52.286;20.930;2022-11-15T14:52:23;53.73;;;26.87;;
30723;SDS011;17473;52.286;20.930;2022-11-15T14:55:03;50.00;;;25.60;;
30723;SDS011;17473;52.286;20.930;2022-11-15T14:57:41;55.20;;;27.13;;
30723;SDS011;17473;52.286;20.930;2022-11-15T15:00:09;53.43;;;26.37;;
30723;SDS011;17473;52.286;20.930;2022-11-15T15:02:36;49.57;;;25.37;;
30723;SDS011;17473;52.286;20.930;2022-11-15T15:05:14;53.73;;;26.57;;
30723;SDS011;17473;52.286;20.930;2022-11-15T15:08:01;51.40;;;26.20;;
30723;SDS011;17473;52.286;20.930;2022-11-15T15:10:33;54.87;;;28.00;;
30723;SDS011;17473;52.286;20.930;2022-11-15T15:13:15;57.77;;;27.37;;
30723;SDS011;17473;52.286;20.930;2022-11-15T15:15:50;55.80;;;29.10;;
30723;SDS011;17473;52.286;20.930;2022-11-15T15:18:18;51.20;;;25.70;;
30723;SDS011;17473;52.286;20.930;2022-11-15T15:20:47;55.87;;;27.97;;
30723;SDS011;17473;52.286;20.930;2022-11-15T15:23:22;48.97;;;24.87;;
30723;SDS011;17473;52.286;20.930;2022-11-15T15:25:51;52.00;;;25.73;;
30723;SDS011;17473;52.286;20.930;2022-11-15T15:28:19;57.97;;;29.67;;
30723;SDS011;17473;52.286;20.930;2022-11-15T15:30:46;53.10;;;28.03;;
30723;SDS011;17473;52.286;20.930;2022-11-15T15:33:13;65.33;;;29.77;;
30723;SDS011;17473;52.286;20.930;2022-11-15T15:35:40;67.17;;;29.67;;
30723;SDS011;17473;52.286;20.930;2022-11-15T15:38:11;60.23;;;29.03;;
30723;SDS011;17473;52.286;20.930;2022-11-15T15:40:38;56.10;;;29.17;;
30723;SDS011;17473;52.286;20.930;2022-11-15T15:43:06;63.70;;;29.70;;
30723;SDS011;17473;52.286;20.930;2022-11-15T15:45:38;59.37;;;29.87;;
30723;SDS011;17473;52.286;20.930;2022-11-15T15:48:10;62.17;;;29.90;;
30723;SDS011;17473;52.286;20.930;2022-11-15T15:50:40;55.43;;;29.33;;
30723;SDS011;17473;52.286;20.930;2022-11-15T15:53:09;68.27;;;30.07;;
30723;SDS011;17473;52.286;20.930;2022-11-15T15:55:37;59.73;;;28.97;;
30723;SDS011;17473;52.286;20.930;2022-11-15T15:58:05;57.17;;;29.93;;
30723;SDS011;17473;52.286;20.930;2022-11-15T16:00:32;62.63;;;30.03;;
30723;SDS011;17473;52.286;20.930;2022-11-15T16:02:59;56.87;;;29.17;;
30723;SDS011;17473;52.286;20.930;2022-11-15T16:05:26;59.53;;;29.10;;
30723;SDS011;17473;52.286;20.930;2022-11-15T16:07:53;67.37;;;31.23;;
30723;SDS011;17473;52.286;20.930;2022-11-15T16:10:22;60.67;;;30.03;;
30723;SDS011;17473;52.286;20.930;2022-11-15T16:12:56;64.90;;;31.20;;
30723;SDS011;17473;52.286;20.930;2022-11-15T16:15:25;65.67;;;31.93;;
30723;SDS011;17473;52.286;20.930;2022-11-15T16:17:56;62.23;;;30.53;;
30723;SDS011;17473;52.286;20.930;2022-11-15T16:20:34;60.37;;;28.57;;
30723;SDS011;17473;52.286;20.930;2022-11-15T16:23:12;58.00;;;28.40;;
30723;SDS011;17473;52.286;20.930;2022-11-15T16:25:46;66.13;;;29.03;;
30723;SDS011;17473;52.286;20.930;2022-11-15T16:28:25;60.97;;;27.93;;
30723;SDS011;17473;52.286;20.930;2022-11-15T16:33:31;59.43;;;27.83;;
30723;SDS011;17473;52.286;20.930;2022-11-15T16:36:01;59.13;;;28.80;;
30723;SDS011;17473;52.286;20.930;2022-11-15T16:38:30;55.70;;;25.97;;
30723;SDS011;17473;52.286;20.930;2022-11-15T16:40:58;57.03;;;26.43;;
30723;SDS011;17473;52.286;20.930;2022-11-15T16:43:25;53.47;;;25.87;;
30723;SDS011;17473;52.286;20.930;2022-11-15T16:45:52;58.77;;;27.47;;
30723;SDS011;17473;52.286;20.930;2022-11-15T16:48:21;56.10;;;25.90;;
30723;SDS011;17473;52.286;20.930;2022-11-15T16:50:55;54.43;;;24.83;;
30723;SDS011;17473;52.286;20.930;2022-11-15T16:53:24;62.33;;;27.87;;
30723;SDS011;17473;52.286;20.930;2022-11-15T16:55:55;60.47;;;26.03;;
30723;SDS011;17473;52.286;20.930;2022-11-15T16:58:23;57.70;;;26.23;;
30723;SDS011;17473;52.286;20.930;2022-11-15T17:00:50;61.17;;;27.00;;
30723;SDS011;17473;52.286;20.930;2022-11-15T17:03:19;61.23;;;26.53;;
30723;SDS011;17473;52.286;20.930;2022-11-15T17:05:50;60.17;;;24.93;;
30723;SDS011;17473;52.286;20.930;2022-11-15T17:08:18;65.60;;;26.90;;